Time;durP1;ratioP1;P1;durP2;ratioP2;P2;SDS_P1;SDS_P2;PMS_P1;PMS_P2;Temp;Humidity;BMP_temperature;BMP_pressure;BME280_temperature;BME280_humidity;BME280_pressure;Samples;Min_cycle;Max_cycle;Signal;HPM_P1;HPM_P2
2023/12/18 00:00:26;;;;;;;29.50;16.77;;;8.30;99.90;;;;;;5002078;28;37798;-78
2023/12/18 00:02:52;;;;;;;36.77;17.17;;;8.40;99.90;;;;;;4998521;28;39036;-78
2023/12/18 00:05:18;;;;;;;30.70;16.27;;;8.30;99.90;;;;;;4994117;28;36138;-78
2023/12/18 00:07:44;;;;;;;28.03;16.07;;;8.30;99.90;;;;;;4982864;28;38882;-78
2023/12/18 00:10:10;;;;;;;28.70;16.47;;;8.30;99.90;;;;;;4989785;28;37831;-78
2023/12/18 00:12:37;;;;;;;34.03;16.63;;;8.30;99.90;;;;;;4994794;28;37984;-78
2023/12/18 00:15:04;;;;;;;30.00;16.50;;;8.40;99.90;;;;;;4998009;28;37689;-77
2023/12/18 00:17:30;;;;;;;28.07;16.17;;;8.30;99.90;;;;;;4990964;28;46924;-79
2023/12/18 00:19:56;;;;;;;35.50;17.07;;;8.40;99.90;;;;;;4997003;28;37898;-79
2023/12/18 00:22:22;;;;;;;24.00;16.10;;;8.40;99.90;;;;;;5012009;28;36560;-77
2023/12/18 00:24:49;;;;;;;30.73;17.17;;;8.40;99.90;;;;;;4994040;28;37851;-78
2023/12/18 00:27:17;;;;;;;33.03;16.53;;;8.40;99.90;;;;;;5013067;28;37336;-78
2023/12/18 00:29:44;;;;;;;29.13;16.30;;;8.40;99.90;;;;;;4998579;28;38884;-78
2023/12/18 00:32:10;;;;;;;28.20;15.80;;;8.40;99.90;;;;;;4997593;28;37059;-78
2023/12/18 00:34:39;;;;;;;37.23;17.27;;;8.40;99.90;;;;;;4995264;28;36741;-78
2023/12/18 00:37:05;;;;;;;32.83;16.13;;;8.40;99.90;;;;;;4994648;28;38053;-77
2023/12/18 00:39:31;;;;;;;29.23;15.63;;;8.50;99.90;;;;;;4991863;28;39068;-77
2023/12/18 00:41:57;;;;;;;33.50;16.53;;;8.50;99.90;;;;;;4986171;28;37189;-77
2023/12/18 00:44:23;;;;;;;29.70;15.27;;;8.50;99.90;;;;;;4990895;28;37347;-79
2023/12/18 00:46:49;;;;;;;27.73;16.53;;;8.50;99.90;;;;;;4992780;28;38876;-77
2023/12/18 00:49:16;;;;;;;26.13;15.50;;;8.50;99.90;;;;;;4990493;28;38061;-77
2023/12/18 00:51:42;;;;;;;27.37;15.83;;;8.50;99.90;;;;;;4991614;28;38652;-77
2023/12/18 00:54:08;;;;;;;27.37;15.00;;;8.50;99.90;;;;;;4989739;28;37304;-76
2023/12/18 00:56:36;;;;;;;29.13;15.10;;;8.50;99.90;;;;;;4990868;28;39656;-78
2023/12/18 00:59:02;;;;;;;30.33;15.93;;;8.50;99.90;;;;;;5003156;28;39434;-77
2023/12/18 01:01:29;;;;;;;29.90;15.07;;;8.50;99.90;;;;;;4981679;28;35577;-77
2023/12/18 01:03:55;;;;;;;25.07;14.10;;;8.50;99.90;;;;;;4987393;28;36295;-77
2023/12/18 01:06:21;;;;;;;27.63;14.87;;;8.50;99.90;;;;;;4984699;28;38968;-77
2023/12/18 01:08:47;;;;;;;28.90;16.23;;;8.50;99.90;;;;;;4991388;28;38303;-78
2023/12/18 01:11:13;;;;;;;31.57;15.33;;;8.50;99.90;;;;;;4988930;28;36691;-78
2023/12/18 01:13:40;;;;;;;31.77;14.50;;;8.50;99.90;;;;;;5010239;28;37710;-78
2023/12/18 01:16:06;;;;;;;34.63;16.40;;;8.60;99.90;;;;;;4992431;28;39215;-77
2023/12/18 01:18:32;;;;;;;28.27;15.10;;;8.60;99.90;;;;;;5003957;28;37223;-76
2023/12/18 01:20:58;;;;;;;29.00;15.63;;;8.50;99.90;;;;;;4988068;28;36665;-77
2023/12/18 01:23:24;;;;;;;29.70;15.33;;;8.60;99.90;;;;;;4991305;28;38060;-77
2023/12/18 01:25:50;;;;;;;25.37;14.50;;;8.50;99.90;;;;;;4986631;28;37481;-77
2023/12/18 01:28:16;;;;;;;28.33;15.70;;;8.60;99.90;;;;;;5001765;28;37189;-77
2023/12/18 01:30:42;;;;;;;28.27;15.77;;;8.60;99.90;;;;;;4987717;28;36734;-77
2023/12/18 01:33:09;;;;;;;37.83;16.87;;;8.50;99.90;;;;;;4984709;28;40294;-77
2023/12/18 01:35:35;;;;;;;31.00;17.97;;;8.50;99.90;;;;;;4989262;28;37738;-79
2023/12/18 01:38:01;;;;;;;30.43;18.13;;;8.40;99.90;;;;;;4988112;28;37299;-78
2023/12/18 01:40:27;;;;;;;30.33;17.83;;;8.30;99.90;;;;;;4987816;28;48209;-77
2023/12/18 01:42:54;;;;;;;31.10;17.13;;;8.20;99.90;;;;;;4988680;28;36332;-76
2023/12/18 01:45:20;;;;;;;39.27;20.00;;;8.20;99.90;;;;;;4987323;28;39314;-78
2023/12/18 01:47:46;;;;;;;38.97;20.00;;;8.20;99.90;;;;;;4990616;28;38811;-77
2023/12/18 01:50:12;;;;;;;34.80;19.63;;;8.10;99.90;;;;;;5003261;28;37006;-78
2023/12/18 01:52:39;;;;;;;35.50;19.63;;;8.10;99.90;;;;;;5001692;28;36543;-77
2023/12/18 01:55:07;;;;;;;31.83;19.30;;;8.10;99.90;;;;;;4983865;28;39847;-78
2023/12/18 01:57:34;;;;;;;36.33;19.43;;;8.10;99.90;;;;;;4986512;28;37268;-78
2023/12/18 02:00:02;;;;;;;31.77;17.97;;;8.10;99.90;;;;;;5002058;28;36919;-78
2023/12/18 02:02:31;;;;;;;38.57;21.40;;;8.10;99.90;;;;;;5608009;22;37693;-81
2023/12/18 02:07:57;;;;;;;36.08;20.05;;;8.10;99.90;;;;;;5546141;23;20039;-81
2023/12/18 02:10:42;;;;;;;27.50;18.13;;;8.00;99.90;;;;;;5016567;28;37770;-81
2023/12/18 02:13:08;;;;;;;34.20;18.53;;;8.10;99.90;;;;;;5013694;28;37757;-80
2023/12/18 02:15:44;;;;;;;33.67;20.67;;;8.10;99.90;;;;;;5011243;28;38827;-81
2023/12/18 02:18:10;;;;;;;28.40;18.17;;;8.00;99.90;;;;;;5015475;28;38349;-82
2023/12/18 02:20:50;;;;;;;31.03;18.57;;;8.00;99.90;;;;;;5011139;28;37866;-82
2023/12/18 02:23:24;;;;;;;31.70;18.53;;;8.10;99.90;;;;;;4996476;28;37778;-82
2023/12/18 02:26:17;;;;;;;37.40;19.60;;;8.10;99.90;;;;;;5011766;28;38342;-82
2023/12/18 02:29:14;;;;;;;36.33;19.47;;;8.10;99.90;;;;;;4996330;28;48501;-83
2023/12/18 02:31:50;;;;;;;29.00;18.50;;;8.10;99.90;;;;;;5008151;23;48493;-83
2023/12/18 02:34:27;;;;;;;32.47;17.60;;;8.10;99.90;;;;;;5021296;28;38122;-81
2023/12/18 02:37:04;;;;;;;30.20;18.33;;;8.10;99.90;;;;;;5016006;28;39298;-80
2023/12/18 02:39:32;;;;;;;29.10;18.53;;;8.20;99.90;;;;;;5150284;22;47496;-81
2023/12/18 02:42:08;;;;;;;27.73;17.40;;;8.20;99.90;;;;;;5014185;28;38016;-81
2023/12/18 02:44:49;;;;;;;35.93;17.67;;;8.20;99.90;;;;;;5014906;28;48608;-81
2023/12/18 02:47:24;;;;;;;33.60;17.67;;;8.20;99.90;;;;;;5008312;28;38990;-83
2023/12/18 02:49:50;;;;;;;38.23;18.63;;;8.20;99.90;;;;;;5010263;28;38466;-82
2023/12/18 02:52:19;;;;;;;33.40;17.77;;;8.20;99.90;;;;;;5019019;28;38002;-82
2023/12/18 02:54:45;;;;;;;30.10;18.53;;;8.20;99.90;;;;;;5425659;22;37377;-82
2023/12/18 02:57:20;;;;;;;33.33;17.90;;;8.20;99.90;;;;;;5028551;28;40397;-81
2023/12/18 02:59:47;;;;;;;38.33;18.63;;;8.20;99.90;;;;;;5603997;22;38216;-82
2023/12/18 03:02:13;;;;;;;32.60;19.47;;;8.20;99.90;;;;;;5246093;23;37930;-81
2023/12/18 03:04:53;;;;;;;34.67;19.77;;;8.20;99.90;;;;;;5019752;28;37804;-81
2023/12/18 03:07:41;;;;;;;32.50;17.60;;;8.30;99.90;;;;;;5008847;28;38794;-83
2023/12/18 03:10:26;;;;;;;37.07;18.40;;;8.30;99.90;;;;;;5018601;28;38764;-80
2023/12/18 03:12:56;;;;;;;31.73;17.57;;;8.20;99.90;;;;;;5016757;28;37668;-81
2023/12/18 03:15:23;;;;;;;39.73;19.13;;;8.30;99.90;;;;;;4984430;28;39111;-81
2023/12/18 03:17:49;;;;;;;25.43;16.47;;;8.30;99.90;;;;;;5025600;28;39224;-81
2023/12/18 03:23:35;;;;;;;30.30;17.93;;;8.30;99.90;;;;;;5010505;28;38843;-81
2023/12/18 03:26:04;;;;;;;33.83;19.40;;;8.30;99.90;;;;;;5260189;22;37467;-81
2023/12/18 03:28:34;;;;;;;25.83;17.83;;;8.30;99.90;;;;;;5013697;28;48130;-82
2023/12/18 03:31:00;;;;;;;32.40;17.60;;;8.30;99.90;;;;;;5028724;28;38536;-81
2023/12/18 03:33:26;;;;;;;37.47;19.00;;;8.30;99.90;;;;;;5009316;28;38396;-81
2023/12/18 03:35:59;;;;;;;30.63;19.10;;;8.30;99.90;;;;;;5019770;28;36670;-82
2023/12/18 03:38:26;;;;;;;28.70;18.92;;;8.30;99.90;;;;;;5024600;28;40719;-81
2023/12/18 03:41:00;;;;;;;34.43;18.77;;;8.30;99.90;;;;;;5018829;28;38463;-82
2023/12/18 03:43:34;;;;;;;27.63;16.93;;;8.30;99.90;;;;;;5308016;23;38528;-80
2023/12/18 03:46:01;;;;;;;37.97;18.17;;;8.30;99.90;;;;;;5038033;28;38751;-81
2023/12/18 03:48:43;;;;;;;34.37;17.50;;;8.30;99.90;;;;;;5053559;28;48458;-83
2023/12/18 03:51:13;;;;;;;35.40;18.20;;;8.40;99.90;;;;;;5052197;28;38168;-81
2023/12/18 03:53:56;;;;;;;29.23;17.40;;;8.40;99.90;;;;;;5037676;28;38399;-82
2023/12/18 03:56:23;;;;;;;37.47;20.20;;;8.30;99.90;;;;;;6017317;22;38185;-80
2023/12/18 04:01:34;;;;;;;39.13;19.37;;;8.40;99.90;;;;;;6072215;22;20061;-81
2023/12/18 04:04:36;;;;;;;38.17;18.40;;;8.40;99.90;;;;;;4997036;28;38213;-81
2023/12/18 04:07:10;;;;;;;32.80;19.13;;;8.40;99.90;;;;;;4995014;28;48227;-81
2023/12/18 04:09:39;;;;;;;34.00;19.67;;;8.40;99.90;;;;;;4995514;28;39355;-81
2023/12/18 04:20:34;;;;;;;34.83;19.67;;;8.40;99.90;;;;;;6155285;22;20040;-81
2023/12/18 04:23:00;;;;;;;32.40;19.03;;;8.40;99.90;;;;;;5262316;22;37907;-82
2023/12/18 04:25:43;;;;;;;32.13;18.20;;;8.40;99.90;;;;;;5005583;28;38669;-83
2023/12/18 04:28:09;;;;;;;36.42;18.48;;;8.30;99.90;;;;;;5018443;28;38817;-82
2023/12/18 04:33:12;;;;;;;34.20;19.13;;;8.30;99.90;;;;;;5967500;22;20046;-81
2023/12/18 04:38:14;;;;;;;29.17;18.00;;;8.40;99.90;;;;;;5975105;22;20187;-83
2023/12/18 04:40:44;;;;;;;33.37;19.30;;;8.40;99.90;;;;;;5544607;22;39454;-81
2023/12/18 04:43:20;;;;;;;31.50;18.97;;;8.40;99.90;;;;;;5000104;28;38700;-82
2023/12/18 04:45:50;;;;;;;31.97;19.30;;;8.40;99.90;;;;;;5017706;28;37529;-83
2023/12/18 04:48:31;;;;;;;32.90;19.40;;;8.40;99.90;;;;;;5006757;28;38656;-84
2023/12/18 04:54:21;;;;;;;39.70;20.57;;;8.30;99.90;;;;;;4997523;28;50755;-82
2023/12/18 04:56:47;;;;;;;37.10;20.27;;;8.40;99.90;;;;;;5008093;28;37965;-83
2023/12/18 04:59:17;;;;;;;32.00;18.90;;;8.40;99.90;;;;;;5003195;28;37709;-83
2023/12/18 05:04:19;;;;;;;38.90;20.67;;;8.40;99.90;;;;;;5019586;28;20043;-82
2023/12/18 05:06:55;;;;;;;32.83;18.90;;;8.30;99.90;;;;;;4997260;28;38250;-82
2023/12/18 05:09:23;;;;;;;40.10;20.20;;;8.40;99.90;;;;;;4985952;28;37429;-82
2023/12/18 05:12:03;;;;;;;35.63;19.47;;;8.40;99.90;;;;;;4994483;28;37462;-82
2023/12/18 05:17:16;;;;;;;28.90;18.27;;;8.40;99.90;;;;;;5012076;28;20084;-82
2023/12/18 05:20:39;;;;;;;32.73;19.90;;;8.40;99.90;;;;;;5024333;28;38800;-82
2023/12/18 05:32:33;;;;;;;31.60;20.77;;;8.40;99.90;;;;;;5508698;22;20057;-81
2023/12/18 05:38:49;;;;;;;27.47;19.17;;;8.40;99.90;;;;;;5006569;28;50596;-82
2023/12/18 05:41:15;;;;;;;35.70;19.47;;;8.40;99.90;;;;;;5006377;28;38401;-82
2023/12/18 05:46:26;;;;;;;32.67;18.50;;;8.40;99.90;;;;;;5189971;23;20041;-82
2023/12/18 05:51:36;;;;;;;32.07;19.13;;;8.40;99.90;;;;;;5016987;23;20041;-82
2023/12/18 05:57:16;;;;;;;32.23;18.93;;;8.40;99.90;;;;;;5619559;22;20039;-82
2023/12/18 06:05:21;;;;;;;27.23;18.43;;;8.40;99.90;;;;;;5022562;28;20065;-81
2023/12/18 06:15:44;;;;;;;33.00;18.17;;;8.50;99.90;;;;;;5706131;22;20035;-81
2023/12/18 06:20:51;;;;;;;32.53;18.17;;;8.50;99.90;;;;;;5522866;22;20057;-80
2023/12/18 06:23:17;;;;;;;33.67;19.03;;;8.50;99.90;;;;;;4987315;28;38004;-79
2023/12/18 06:25:43;;;;;;;33.30;19.03;;;8.50;99.90;;;;;;4988851;28;37994;-78
2023/12/18 06:28:09;;;;;;;37.50;18.83;;;8.50;99.90;;;;;;5003268;28;39380;-81
2023/12/18 06:30:35;;;;;;;38.47;18.70;;;8.60;99.90;;;;;;5033288;28;38458;-82
2023/12/18 06:33:02;;;;;;;36.57;19.10;;;8.60;99.90;;;;;;5120171;23;39170;-81
2023/12/18 06:35:28;;;;;;;34.90;20.43;;;8.60;99.90;;;;;;5018993;28;36569;-81
2023/12/18 06:38:00;;;;;;;37.03;20.83;;;8.60;99.90;;;;;;5017865;28;40360;-83
2023/12/18 06:40:26;;;;;;;28.10;17.92;;;8.60;99.90;;;;;;5015392;28;38896;-81
2023/12/18 06:42:55;;;;;;;30.70;18.73;;;8.50;99.90;;;;;;5016452;28;38390;-81
2023/12/18 06:45:22;;;;;;;29.33;18.50;;;8.60;99.90;;;;;;5019012;28;39410;-82
2023/12/18 06:47:52;;;;;;;31.43;19.37;;;8.60;99.90;;;;;;5018139;28;39088;-81
2023/12/18 06:50:18;;;;;;;34.67;18.87;;;8.60;99.90;;;;;;5006426;28;37698;-81
2023/12/18 06:52:44;;;;;;;33.60;18.37;;;8.60;99.90;;;;;;5002829;28;37534;-80
2023/12/18 06:55:10;;;;;;;33.33;17.57;;;8.60;99.90;;;;;;5010889;28;36294;-81
2023/12/18 06:57:37;;;;;;;28.10;17.37;;;8.60;99.90;;;;;;5001543;28;39707;-81
2023/12/18 07:00:03;;;;;;;36.47;18.83;;;8.60;99.90;;;;;;5001525;28;39322;-81
2023/12/18 07:02:29;;;;;;;34.43;18.97;;;8.60;99.90;;;;;;5004855;28;37394;-81
2023/12/18 07:04:55;;;;;;;35.53;19.70;;;8.60;99.90;;;;;;4998915;28;38629;-81
2023/12/18 07:07:22;;;;;;;32.23;18.63;;;8.60;99.90;;;;;;4996448;28;37747;-82
2023/12/18 07:09:48;;;;;;;34.60;18.80;;;8.70;99.90;;;;;;5008501;28;39675;-81
2023/12/18 07:12:15;;;;;;;35.30;19.67;;;8.60;99.90;;;;;;5007597;28;37421;-81
2023/12/18 07:14:43;;;;;;;32.60;18.73;;;8.50;99.90;;;;;;5002357;28;36267;-81
2023/12/18 07:17:09;;;;;;;35.17;20.03;;;8.40;99.90;;;;;;5000767;28;38835;-81
2023/12/18 07:19:38;;;;;;;43.57;21.70;;;8.40;99.90;;;;;;5002543;28;38223;-81
2023/12/18 07:22:04;;;;;;;36.47;20.80;;;8.40;99.90;;;;;;5004369;28;37557;-81
2023/12/18 07:24:30;;;;;;;37.83;21.97;;;8.40;99.90;;;;;;5004927;28;36340;-81
2023/12/18 07:26:57;;;;;;;35.07;22.13;;;8.30;99.90;;;;;;5004766;28;38815;-81
2023/12/18 07:29:23;;;;;;;36.93;20.97;;;8.30;99.90;;;;;;4999070;28;40367;-81
2023/12/18 07:31:49;;;;;;;35.97;22.70;;;8.20;99.90;;;;;;5000935;28;36611;-81
2023/12/18 07:34:15;;;;;;;37.50;22.33;;;8.20;99.90;;;;;;4999133;28;36220;-81
2023/12/18 07:36:41;;;;;;;35.40;21.70;;;8.20;99.90;;;;;;4998586;28;37824;-81
2023/12/18 07:39:08;;;;;;;44.43;23.03;;;8.20;99.90;;;;;;5005839;28;37279;-81
2023/12/18 07:41:34;;;;;;;35.43;21.80;;;8.20;99.90;;;;;;4998406;28;37155;-81
2023/12/18 07:44:01;;;;;;;32.40;21.23;;;8.20;99.90;;;;;;5002811;28;37104;-81
2023/12/18 07:46:28;;;;;;;37.60;21.70;;;8.20;99.90;;;;;;4999189;28;38431;-81
2023/12/18 07:48:54;;;;;;;39.77;22.43;;;8.20;99.90;;;;;;4999276;28;37802;-79
2023/12/18 07:51:20;;;;;;;35.90;21.63;;;8.20;99.90;;;;;;5006343;28;38933;-81
2023/12/18 07:53:48;;;;;;;39.50;21.63;;;8.20;99.90;;;;;;5015053;28;36351;-81
2023/12/18 07:56:16;;;;;;;34.80;20.17;;;8.20;99.90;;;;;;5014617;28;38045;-80
2023/12/18 07:58:42;;;;;;;36.07;20.10;;;8.20;99.90;;;;;;5012043;28;38854;-82
2023/12/18 08:01:09;;;;;;;34.27;20.67;;;8.20;99.90;;;;;;5005907;28;37292;-81
2023/12/18 08:03:40;;;;;;;32.07;18.93;;;8.30;99.90;;;;;;5013769;28;37561;-82
2023/12/18 08:06:06;;;;;;;35.87;21.07;;;8.30;99.90;;;;;;5011566;28;39304;-81
2023/12/18 08:08:33;;;;;;;35.10;19.53;;;8.30;99.90;;;;;;5002729;28;38361;-80
2023/12/18 08:11:09;;;;;;;34.20;19.63;;;8.40;99.90;;;;;;5011311;28;39293;-81
2023/12/18 08:13:46;;;;;;;31.03;18.57;;;8.40;99.90;;;;;;4989664;28;47570;-81
2023/12/18 08:16:23;;;;;;;36.37;19.97;;;8.40;99.90;;;;;;4979881;28;40352;-81
2023/12/18 08:18:49;;;;;;;37.83;18.93;;;8.40;99.90;;;;;;5005402;28;38240;-81
2023/12/18 08:21:15;;;;;;;32.37;17.83;;;8.50;99.90;;;;;;5004750;28;37835;-80
2023/12/18 08:23:42;;;;;;;32.87;18.17;;;8.40;99.90;;;;;;4990666;28;36340;-80
2023/12/18 08:26:11;;;;;;;30.53;17.97;;;8.40;99.90;;;;;;4991548;28;38912;-80
2023/12/18 08:28:41;;;;;;;28.83;18.97;;;8.40;99.90;;;;;;4989452;28;39178;-81
2023/12/18 08:34:37;;;;;;;28.27;17.93;;;8.50;99.90;;;;;;4962493;28;48849;-80
2023/12/18 08:37:03;;;;;;;29.53;16.33;;;8.50;99.90;;;;;;4996694;28;38833;-80
2023/12/18 08:39:29;;;;;;;31.87;18.27;;;8.50;99.90;;;;;;4993486;28;37566;-81
2023/12/18 08:41:56;;;;;;;26.93;17.43;;;8.50;99.90;;;;;;5003826;28;36776;-81
2023/12/18 08:44:22;;;;;;;29.43;17.93;;;8.60;99.90;;;;;;4998934;28;36343;-81
2023/12/18 08:46:48;;;;;;;33.90;18.83;;;8.50;99.90;;;;;;5003783;28;38331;-81
2023/12/18 08:49:14;;;;;;;34.73;19.13;;;8.50;99.90;;;;;;5012929;28;37030;-81
2023/12/18 08:51:40;;;;;;;31.27;18.50;;;8.50;99.90;;;;;;4996333;28;37955;-81
2023/12/18 08:54:06;;;;;;;28.50;18.23;;;8.50;99.90;;;;;;5003793;28;36660;-81
2023/12/18 08:56:33;;;;;;;33.27;18.00;;;8.40;99.90;;;;;;5006915;28;38524;-82
2023/12/18 08:58:59;;;;;;;33.77;18.30;;;8.50;99.90;;;;;;5004659;28;37189;-80
2023/12/18 09:01:25;;;;;;;29.73;19.60;;;8.50;99.90;;;;;;5018198;28;36435;-81
2023/12/18 09:03:51;;;;;;;31.50;18.03;;;8.40;99.90;;;;;;5002633;28;36479;-81
2023/12/18 09:06:17;;;;;;;33.27;19.07;;;8.40;99.90;;;;;;5001270;28;37898;-81
2023/12/18 09:08:43;;;;;;;32.67;19.67;;;8.40;99.90;;;;;;5003352;28;38589;-81
2023/12/18 09:11:10;;;;;;;33.13;18.13;;;8.40;99.90;;;;;;5001043;28;36434;-82
2023/12/18 09:13:38;;;;;;;26.43;18.17;;;8.50;99.90;;;;;;5000343;28;35420;-81
2023/12/18 09:16:15;;;;;;;32.60;19.67;;;8.50;99.90;;;;;;5007872;28;37528;-82
2023/12/18 09:18:41;;;;;;;33.30;19.10;;;8.60;99.90;;;;;;5014652;28;39852;-82
2023/12/18 09:21:08;;;;;;;30.37;18.90;;;8.60;99.90;;;;;;5017752;28;38169;-82
2023/12/18 09:23:34;;;;;;;31.87;18.23;;;8.60;99.90;;;;;;5008338;28;37201;-82
2023/12/18 09:26:01;;;;;;;33.83;19.33;;;8.60;99.90;;;;;;5019339;28;37416;-81
2023/12/18 09:28:27;;;;;;;30.17;19.17;;;8.60;99.90;;;;;;5007217;28;46547;-82
2023/12/18 09:30:53;;;;;;;29.50;17.47;;;8.70;99.90;;;;;;5004665;28;37112;-82
2023/12/18 09:33:19;;;;;;;26.97;17.17;;;8.60;99.90;;;;;;5006566;28;37561;-80
2023/12/18 09:35:52;;;;;;;31.93;19.50;;;8.70;99.90;;;;;;5012552;28;38750;-81
2023/12/18 09:38:25;;;;;;;32.27;17.83;;;8.80;99.90;;;;;;5010521;28;37208;-81
2023/12/18 09:40:57;;;;;;;34.33;19.52;;;8.80;99.90;;;;;;4998632;28;39213;-81
2023/12/18 09:43:23;;;;;;;32.53;18.10;;;8.80;99.90;;;;;;5011580;28;36092;-81
2023/12/18 09:45:49;;;;;;;32.20;18.30;;;8.90;99.90;;;;;;5013989;28;40238;-81
2023/12/18 09:48:18;;;;;;;29.53;18.17;;;8.90;99.90;;;;;;5008757;28;38992;-81
2023/12/18 09:50:45;;;;;;;34.50;19.23;;;9.00;99.90;;;;;;5010631;28;37909;-81
2023/12/18 09:53:14;;;;;;;29.33;18.30;;;9.00;99.90;;;;;;5006464;28;38443;-81
2023/12/18 09:55:40;;;;;;;32.53;18.77;;;9.10;99.90;;;;;;4992251;28;39409;-81
2023/12/18 09:58:12;;;;;;;31.70;18.37;;;9.20;99.90;;;;;;5003507;28;37253;-81
2023/12/18 10:00:39;;;;;;;30.85;19.02;;;9.10;99.90;;;;;;5012292;28;39417;-81
2023/12/18 10:03:05;;;;;;;32.03;18.60;;;9.10;99.90;;;;;;5008638;28;37769;-82
2023/12/18 10:05:32;;;;;;;35.33;19.30;;;9.10;99.90;;;;;;5020684;28;38915;-82
2023/12/18 10:08:01;;;;;;;37.07;19.63;;;9.10;99.90;;;;;;4999695;28;38893;-82
2023/12/18 10:10:27;;;;;;;29.43;18.23;;;9.10;99.90;;;;;;5004242;28;48637;-82
2023/12/18 10:13:06;;;;;;;28.87;19.60;;;9.10;99.90;;;;;;5002322;28;37331;-81
2023/12/18 10:15:42;;;;;;;32.27;19.17;;;9.20;99.90;;;;;;4995436;28;46977;-81
2023/12/18 10:18:09;;;;;;;30.03;18.13;;;9.30;99.90;;;;;;5001286;28;38588;-82
2023/12/18 10:20:41;;;;;;;35.60;19.83;;;9.30;99.90;;;;;;5062317;22;37553;-81
2023/12/18 10:23:19;;;;;;;38.60;19.08;;;9.30;99.90;;;;;;5039277;28;37517;-80
2023/12/18 10:25:45;;;;;;;33.33;19.53;;;9.30;99.90;;;;;;5007179;28;37878;-80
2023/12/18 10:28:12;;;;;;;33.47;19.50;;;9.40;99.90;;;;;;5031678;28;37023;-80
2023/12/18 10:30:38;;;;;;;34.70;20.20;;;9.30;99.90;;;;;;5036617;28;36722;-81
2023/12/18 10:33:09;;;;;;;28.27;18.47;;;9.30;99.90;;;;;;5034269;28;36374;-80
2023/12/18 10:35:36;;;;;;;35.67;20.53;;;9.30;99.90;;;;;;5036581;28;40039;-81
2023/12/18 10:38:02;;;;;;;30.43;20.13;;;9.30;99.90;;;;;;5035594;28;38381;-80
2023/12/18 10:40:34;;;;;;;34.87;20.53;;;9.30;99.90;;;;;;5031668;28;38846;-80
2023/12/18 10:43:36;;;;;;;30.48;19.63;;;9.30;99.90;;;;;;5030134;28;38276;-83
2023/12/18 10:46:04;;;;;;;32.53;20.03;;;9.30;99.90;;;;;;5020511;28;50188;-83
2023/12/18 10:48:40;;;;;;;38.30;20.63;;;9.40;99.90;;;;;;5035130;28;38220;-81
2023/12/18 10:51:08;;;;;;;32.53;19.53;;;9.40;99.90;;;;;;5045847;23;37366;-80
2023/12/18 10:53:37;;;;;;;33.30;18.80;;;9.40;99.90;;;;;;5004328;28;35450;-81
2023/12/18 10:56:08;;;;;;;33.73;18.00;;;9.50;99.90;;;;;;5000577;28;38689;-81
2023/12/18 10:58:37;;;;;;;35.97;19.50;;;9.50;99.90;;;;;;5031374;28;38107;-80
2023/12/18 11:01:04;;;;;;;33.97;18.50;;;9.50;99.90;;;;;;4987620;28;37025;-79
2023/12/18 11:03:30;;;;;;;37.60;19.97;;;9.50;99.90;;;;;;5007349;28;36462;-80
2023/12/18 11:05:56;;;;;;;34.70;19.60;;;9.50;99.90;;;;;;5013318;28;39334;-80
2023/12/18 11:08:25;;;;;;;34.67;19.50;;;9.40;99.90;;;;;;5012262;28;37950;-82
2023/12/18 11:10:53;;;;;;;32.50;18.63;;;9.40;99.90;;;;;;5017645;28;38364;-81
2023/12/18 11:13:47;;;;;;;36.27;19.20;;;9.40;99.90;;;;;;4999604;28;37832;-80
2023/12/18 11:16:49;;;;;;;29.37;18.13;;;9.40;99.90;;;;;;5008724;28;37760;-81
2023/12/18 11:19:41;;;;;;;30.92;19.02;;;9.40;99.90;;;;;;5005281;28;37063;-81
2023/12/18 11:22:08;;;;;;;31.70;19.40;;;9.40;99.90;;;;;;5002286;28;36973;-80
2023/12/18 11:24:36;;;;;;;32.30;18.63;;;9.40;99.90;;;;;;5006698;28;35918;-80
2023/12/18 11:27:05;;;;;;;32.63;19.57;;;9.40;99.90;;;;;;5006681;28;38015;-80
2023/12/18 11:29:45;;;;;;;34.57;20.60;;;9.50;99.90;;;;;;5012749;28;39066;-82
2023/12/18 11:32:40;;;;;;;31.10;19.73;;;9.40;99.90;;;;;;5010515;28;38735;-81
2023/12/18 11:35:13;;;;;;;38.70;20.47;;;9.50;99.90;;;;;;4989915;28;37681;-79
2023/12/18 11:37:50;;;;;;;33.43;19.37;;;9.50;99.90;;;;;;4983677;28;37479;-78
2023/12/18 11:40:31;;;;;;;33.43;18.43;;;9.50;99.90;;;;;;4999275;28;38990;-81
2023/12/18 11:42:58;;;;;;;28.27;19.13;;;9.40;99.90;;;;;;5002246;28;40985;-81
2023/12/18 11:45:25;;;;;;;26.43;17.87;;;9.50;99.90;;;;;;5002820;28;36330;-80
2023/12/18 11:48:17;;;;;;;28.30;17.73;;;9.50;99.90;;;;;;5003087;28;39036;-80
2023/12/18 11:50:43;;;;;;;33.33;17.87;;;9.60;99.90;;;;;;4992593;28;46808;-81
2023/12/18 11:53:27;;;;;;;33.23;17.30;;;9.70;99.90;;;;;;5005179;28;36789;-80
2023/12/18 11:55:54;;;;;;;29.40;17.33;;;9.70;99.90;;;;;;5011682;28;36466;-80
2023/12/18 11:58:24;;;;;;;29.47;17.73;;;9.80;99.90;;;;;;5004726;28;39764;-80
2023/12/18 12:00:51;;;;;;;33.53;17.80;;;9.80;99.90;;;;;;4996038;28;37706;-79
2023/12/18 12:03:18;;;;;;;30.73;17.23;;;9.80;99.90;;;;;;5005696;28;39497;-81
2023/12/18 12:05:49;;;;;;;30.03;17.23;;;9.80;99.90;;;;;;5008047;28;37103;-80
2023/12/18 12:08:24;;;;;;;28.40;15.67;;;9.80;99.90;;;;;;5035121;28;39962;-80
2023/12/18 12:10:54;;;;;;;29.47;16.63;;;9.80;99.90;;;;;;5021081;28;38700;-81
2023/12/18 12:13:23;;;;;;;30.50;15.80;;;9.80;99.90;;;;;;5010040;28;37058;-80
2023/12/18 12:15:56;;;;;;;25.10;15.40;;;9.80;99.90;;;;;;5012075;28;36229;-80
2023/12/18 12:18:23;;;;;;;26.30;15.50;;;9.80;99.90;;;;;;5020812;28;38397;-81
2023/12/18 12:20:49;;;;;;;27.20;15.40;;;9.90;99.90;;;;;;5014644;28;37150;-80
2023/12/18 12:23:23;;;;;;;26.80;16.43;;;9.90;99.90;;;;;;5012876;28;38630;-81
2023/12/18 12:25:56;;;;;;;26.53;15.53;;;9.80;99.90;;;;;;5010586;28;36712;-80
2023/12/18 12:28:29;;;;;;;23.30;14.20;;;9.90;99.90;;;;;;5004786;28;39691;-81
2023/12/18 12:30:55;;;;;;;22.42;12.35;;;9.90;99.90;;;;;;5005674;28;38863;-80
2023/12/18 12:33:21;;;;;;;23.80;12.87;;;9.90;99.90;;;;;;5005957;28;39633;-80
2023/12/18 12:35:47;;;;;;;23.87;12.93;;;9.90;99.90;;;;;;5011502;28;36370;-80
2023/12/18 12:38:16;;;;;;;25.83;13.73;;;9.90;99.90;;;;;;5009635;28;37647;-80
2023/12/18 12:40:51;;;;;;;21.67;13.80;;;9.90;99.90;;;;;;5011686;28;37747;-80
2023/12/18 12:43:17;;;;;;;23.33;13.43;;;9.90;99.90;;;;;;5011421;28;38819;-80
2023/12/18 12:45:45;;;;;;;19.50;13.33;;;9.90;99.90;;;;;;5013629;28;36535;-81
2023/12/18 12:48:24;;;;;;;26.23;14.40;;;9.80;99.90;;;;;;4997604;28;38110;-80
2023/12/18 12:50:57;;;;;;;18.87;13.10;;;9.80;99.90;;;;;;5010813;28;39036;-81
2023/12/18 12:53:27;;;;;;;21.40;13.77;;;9.70;99.90;;;;;;4993918;28;38687;-81
2023/12/18 12:55:58;;;;;;;23.67;14.57;;;9.70;99.90;;;;;;5003395;28;36695;-80
2023/12/18 12:58:25;;;;;;;26.93;15.30;;;9.70;99.90;;;;;;5005144;28;38432;-80
2023/12/18 13:00:54;;;;;;;30.30;14.63;;;9.60;99.90;;;;;;5008539;28;36159;-80
2023/12/18 13:03:23;;;;;;;25.13;15.17;;;9.60;99.90;;;;;;5010336;28;38532;-80
2023/12/18 13:05:51;;;;;;;25.20;15.83;;;9.50;99.90;;;;;;5009153;28;38893;-82
2023/12/18 13:08:18;;;;;;;24.40;15.93;;;9.50;99.90;;;;;;5004574;28;39536;-80
2023/12/18 13:10:53;;;;;;;25.50;15.73;;;9.50;99.90;;;;;;5000978;28;38304;-80
2023/12/18 13:13:20;;;;;;;32.53;15.77;;;9.40;99.90;;;;;;5006462;28;38058;-80
2023/12/18 13:15:46;;;;;;;31.23;16.80;;;9.40;99.90;;;;;;5006925;28;36361;-80
2023/12/18 13:18:14;;;;;;;31.07;15.27;;;9.40;99.90;;;;;;5009353;28;39667;-81
2023/12/18 13:20:47;;;;;;;31.07;16.07;;;9.40;99.90;;;;;;5013173;28;39107;-80
2023/12/18 13:23:14;;;;;;;26.97;15.10;;;9.40;99.90;;;;;;4990647;28;38460;-80
2023/12/18 13:25:41;;;;;;;23.87;15.33;;;9.40;99.90;;;;;;5002325;28;37107;-81
2023/12/18 13:28:10;;;;;;;34.63;16.00;;;9.30;99.90;;;;;;5012189;28;38945;-81
2023/12/18 13:30:37;;;;;;;27.13;15.60;;;9.30;99.90;;;;;;5001226;28;38510;-81
2023/12/18 13:33:04;;;;;;;26.20;16.07;;;9.30;99.90;;;;;;5012066;28;38506;-80
2023/12/18 13:35:35;;;;;;;27.03;15.60;;;9.40;99.90;;;;;;4992402;28;36445;-80
2023/12/18 13:38:02;;;;;;;26.87;16.20;;;9.40;99.90;;;;;;5010635;28;39322;-81
2023/12/18 13:40:29;;;;;;;27.30;16.23;;;9.50;99.90;;;;;;5004821;28;48783;-81
2023/12/18 13:42:55;;;;;;;28.37;16.23;;;9.40;99.90;;;;;;5009354;28;37740;-81
2023/12/18 13:45:22;;;;;;;30.33;17.43;;;9.40;99.90;;;;;;5007975;28;38640;-80
2023/12/18 13:47:49;;;;;;;34.10;16.53;;;9.30;99.90;;;;;;5007520;28;38040;-81
2023/12/18 13:50:15;;;;;;;27.90;15.93;;;9.20;99.90;;;;;;5005221;28;38404;-81
2023/12/18 13:52:44;;;;;;;30.43;16.33;;;9.20;99.90;;;;;;5006732;28;38456;-80
2023/12/18 13:55:10;;;;;;;32.27;17.20;;;9.20;99.90;;;;;;5003093;28;38388;-81
2023/12/18 13:57:37;;;;;;;27.40;16.37;;;9.20;99.90;;;;;;5008574;28;40203;-81
2023/12/18 14:00:04;;;;;;;32.13;18.10;;;9.20;99.90;;;;;;5007909;28;37795;-81